Time;durP1;ratioP1;P1;durP2;ratioP2;P2;SDS_P1;SDS_P2;PMS_P1;PMS_P2;Temp;Humidity;BMP_temperature;BMP_pressure;BME280_temperature;BME280_humidity;BME280_pressure;Samples;Min_cycle;Max_cycle;Signal;HPM_P1;HPM_P2
2023/02/14 00:01:36;;;;;;;32.03;20.37;;;6.30;99.90;;;;;;5077191;28;20272;-83
2023/02/14 00:04:03;;;;;;;33.13;19.30;;;6.30;99.90;;;;;;5077127;28;20448;-83
2023/02/14 00:06:34;;;;;;;27.75;16.90;;;6.30;99.90;;;;;;5077057;28;20456;-81
2023/02/14 00:09:01;;;;;;;29.80;18.45;;;6.30;99.90;;;;;;5076996;28;20740;-80
2023/02/14 00:11:27;;;;;;;29.95;16.25;;;6.30;99.90;;;;;;5095426;28;20201;-81
2023/02/14 00:16:37;;;;;;;28.73;16.13;;;6.30;99.90;;;;;;5095493;28;20180;-83
2023/02/14 00:19:02;;;;;;;27.30;15.83;;;6.30;99.90;;;;;;5076823;28;20196;-83
2023/02/14 00:21:35;;;;;;;26.43;15.30;;;6.30;99.90;;;;;;5076827;28;20176;-81
2023/02/14 00:24:03;;;;;;;23.35;14.05;;;6.30;99.90;;;;;;5094997;28;20420;-83
2023/02/14 00:26:29;;;;;;;22.20;13.65;;;6.30;99.90;;;;;;5076714;28;20556;-83
2023/02/14 00:28:54;;;;;;;20.57;14.13;;;6.30;99.90;;;;;;5094719;28;20208;-81
2023/02/14 00:31:20;;;;;;;21.27;15.20;;;6.40;99.90;;;;;;5076702;28;20645;-83
2023/02/14 00:33:46;;;;;;;23.77;14.02;;;6.40;99.90;;;;;;5076644;28;20192;-82
2023/02/14 00:36:12;;;;;;;20.47;13.10;;;6.40;99.90;;;;;;5095473;28;20180;-81
2023/02/14 00:38:37;;;;;;;23.17;15.60;;;6.40;99.90;;;;;;5076439;28;20249;-83
2023/02/14 00:41:04;;;;;;;20.17;13.80;;;6.30;99.90;;;;;;5095230;28;20646;-80
2023/02/14 00:43:30;;;;;;;20.98;14.00;;;6.40;99.90;;;;;;5094499;28;20219;-83
2023/02/14 00:45:56;;;;;;;25.63;14.70;;;6.40;99.90;;;;;;5076995;28;20199;-83
2023/02/14 00:48:22;;;;;;;24.45;14.30;;;6.40;99.90;;;;;;5076223;28;20216;-81
2023/02/14 00:50:48;;;;;;;22.73;13.93;;;6.40;99.90;;;;;;5094895;28;20226;-83
2023/02/14 00:53:14;;;;;;;26.60;15.27;;;6.40;99.90;;;;;;5094444;28;20657;-83
2023/02/14 00:55:39;;;;;;;27.23;15.77;;;6.40;99.90;;;;;;5094865;28;20608;-81
2023/02/14 00:58:05;;;;;;;21.80;14.70;;;6.40;99.90;;;;;;5094327;28;20844;-83
2023/02/14 01:00:31;;;;;;;21.63;14.27;;;6.40;99.90;;;;;;5094648;28;20208;-81
2023/02/14 01:02:56;;;;;;;22.03;15.43;;;6.40;99.90;;;;;;5094184;28;20184;-80
2023/02/14 01:05:22;;;;;;;26.17;15.50;;;6.40;99.90;;;;;;5094665;28;20508;-80
2023/02/14 01:07:48;;;;;;;26.30;14.93;;;6.30;99.90;;;;;;5075904;28;20208;-81
2023/02/14 01:10:14;;;;;;;26.80;15.63;;;6.30;99.90;;;;;;5094422;28;20194;-83
2023/02/14 01:12:40;;;;;;;24.38;15.20;;;6.30;99.90;;;;;;5093716;28;20435;-80
2023/02/14 01:15:06;;;;;;;26.57;15.43;;;6.30;99.90;;;;;;5094450;28;20176;-81
2023/02/14 01:17:31;;;;;;;28.27;16.63;;;6.30;99.90;;;;;;5094078;28;20665;-83
2023/02/14 01:19:57;;;;;;;24.77;15.37;;;6.40;99.90;;;;;;5094052;28;20184;-80
2023/02/14 01:22:23;;;;;;;24.93;14.80;;;6.40;99.90;;;;;;5075776;28;20231;-81
2023/02/14 01:24:49;;;;;;;22.73;15.63;;;6.40;99.90;;;;;;5076042;28;20176;-83
2023/02/14 01:27:14;;;;;;;28.80;16.80;;;6.30;99.90;;;;;;5076150;28;20620;-84
2023/02/14 01:29:40;;;;;;;26.20;15.77;;;6.40;99.90;;;;;;5075978;28;20188;-83
2023/02/14 01:32:06;;;;;;;26.37;15.70;;;6.40;99.90;;;;;;5075779;28;20279;-83
2023/02/14 01:34:32;;;;;;;29.20;16.10;;;6.50;99.90;;;;;;5075747;28;20546;-83
2023/02/14 01:36:57;;;;;;;30.00;15.52;;;6.50;99.90;;;;;;5093829;28;20180;-81
2023/02/14 01:39:23;;;;;;;23.30;16.33;;;6.50;99.90;;;;;;5093791;28;20181;-81
2023/02/14 01:41:49;;;;;;;30.60;17.60;;;6.50;99.90;;;;;;5075643;28;20179;-81
2023/02/14 01:44:15;;;;;;;31.50;16.50;;;6.50;99.90;;;;;;5093837;28;20213;-83
2023/02/14 01:46:43;;;;;;;29.38;17.73;;;6.60;99.90;;;;;;5075575;28;20652;-81
2023/02/14 01:49:20;;;;;;;28.25;17.27;;;6.60;99.90;;;;;;5075514;28;20219;-83
2023/02/14 01:52:14;;;;;;;31.52;17.30;;;6.60;99.90;;;;;;5093740;28;20168;-81
2023/02/14 01:54:45;;;;;;;27.63;16.00;;;6.60;99.90;;;;;;5075768;28;20694;-83
2023/02/14 01:57:14;;;;;;;26.58;16.23;;;6.50;99.90;;;;;;5093675;28;20227;-81
2023/02/14 01:59:45;;;;;;;26.55;15.73;;;6.50;99.90;;;;;;5093730;28;20173;-83
2023/02/14 02:02:11;;;;;;;24.20;15.82;;;6.50;99.90;;;;;;5093598;28;20341;-83
2023/02/14 02:04:40;;;;;;;26.53;15.50;;;6.50;99.90;;;;;;5093695;28;20634;-80
2023/02/14 02:07:10;;;;;;;26.73;16.08;;;6.50;99.90;;;;;;5093420;28;20965;-83
2023/02/14 02:09:46;;;;;;;23.40;14.63;;;6.40;99.90;;;;;;5075424;28;20645;-83
2023/02/14 02:12:12;;;;;;;25.30;16.17;;;6.40;99.90;;;;;;5079383;28;20200;-81
2023/02/14 02:14:38;;;;;;;25.02;13.75;;;6.40;99.90;;;;;;5097504;28;20239;-80
2023/02/14 02:17:19;;;;;;;28.98;15.93;;;6.30;99.90;;;;;;5097681;28;20199;-83
2023/02/14 02:20:25;;;;;;;28.40;15.98;;;6.30;99.90;;;;;;5079538;28;20190;-83
2023/02/14 02:23:12;;;;;;;28.73;15.38;;;6.30;99.90;;;;;;5079183;28;20294;-81
2023/02/14 02:25:55;;;;;;;31.75;16.77;;;6.30;99.90;;;;;;5097126;28;20223;-81
2023/02/14 02:28:52;;;;;;;23.40;15.52;;;6.30;99.90;;;;;;5097151;28;20593;-83
2023/02/14 02:31:36;;;;;;;24.75;15.00;;;6.30;99.90;;;;;;5078889;28;20271;-83
2023/02/14 02:34:14;;;;;;;27.65;15.55;;;6.30;99.90;;;;;;5097036;28;20614;-83
2023/02/14 02:36:58;;;;;;;30.67;16.40;;;6.30;99.90;;;;;;5078855;28;20259;-81
2023/02/14 02:39:29;;;;;;;23.45;15.13;;;6.20;99.90;;;;;;5078897;28;20258;-81
2023/02/14 02:42:14;;;;;;;29.23;16.30;;;6.30;99.90;;;;;;5078849;28;20168;-83
2023/02/14 02:45:21;;;;;;;28.10;15.13;;;6.20;99.90;;;;;;5078847;28;20180;-81
2023/02/14 02:48:09;;;;;;;27.15;15.68;;;6.20;99.90;;;;;;5096413;28;20212;-81
2023/02/14 02:53:32;;;;;;;36.03;16.80;;;6.20;99.90;;;;;;5097033;28;20234;-81
2023/02/14 02:58:59;;;;;;;25.08;15.90;;;6.20;99.90;;;;;;5096695;28;20199;-83
2023/02/14 03:01:32;;;;;;;29.95;16.63;;;6.20;99.90;;;;;;5096544;28;20184;-81
2023/02/14 03:06:51;;;;;;;26.83;16.70;;;6.20;99.90;;;;;;5096550;28;20218;-83
2023/02/14 03:09:19;;;;;;;25.52;15.75;;;6.20;99.90;;;;;;5096525;28;20181;-83
2023/02/14 03:12:00;;;;;;;27.60;16.17;;;6.20;99.90;;;;;;5096401;28;20249;-83
2023/02/14 03:14:34;;;;;;;28.92;16.52;;;6.20;99.90;;;;;;5078268;28;20239;-83
2023/02/14 03:17:21;;;;;;;27.35;15.75;;;6.10;99.90;;;;;;5096345;28;20192;-81
2023/02/14 03:20:12;;;;;;;24.45;15.00;;;6.00;99.90;;;;;;5096419;28;20212;-83
2023/02/14 03:22:48;;;;;;;26.20;14.98;;;6.00;99.90;;;;;;5095002;28;20551;-81
2023/02/14 03:25:51;;;;;;;29.67;16.13;;;6.00;99.90;;;;;;5096363;28;20195;-83
2023/02/14 03:28:29;;;;;;;26.30;17.02;;;5.90;99.90;;;;;;5077881;28;20211;-81
2023/02/14 03:31:18;;;;;;;30.52;15.80;;;5.80;99.90;;;;;;5096488;28;20195;-81
2023/02/14 03:33:56;;;;;;;29.17;15.43;;;5.70;99.90;;;;;;5077727;28;20211;-81
2023/02/14 03:36:38;;;;;;;31.80;15.77;;;5.70;99.90;;;;;;5077816;28;20180;-83
2023/02/14 03:39:25;;;;;;;26.92;15.95;;;5.60;99.90;;;;;;5095923;28;20196;-83
2023/02/14 03:42:06;;;;;;;27.33;15.98;;;5.60;99.90;;;;;;5095950;28;20165;-81
2023/02/14 03:44:34;;;;;;;27.27;16.75;;;5.60;99.90;;;;;;5077754;28;20180;-81
2023/02/14 03:47:13;;;;;;;29.25;16.17;;;5.50;99.90;;;;;;5077522;28;20219;-83
2023/02/14 03:50:01;;;;;;;30.13;16.52;;;5.40;99.90;;;;;;5077870;28;20645;-80
2023/02/14 03:52:29;;;;;;;32.05;17.95;;;5.40;99.90;;;;;;5077872;28;20581;-80
2023/02/14 03:54:57;;;;;;;31.33;17.58;;;5.40;99.90;;;;;;5096038;28;20266;-84
2023/02/14 03:57:46;;;;;;;32.20;18.17;;;5.20;99.90;;;;;;5095790;28;20196;-83
2023/02/14 04:00:13;;;;;;;32.85;17.02;;;5.30;99.90;;;;;;5077606;28;20180;-83
2023/02/14 04:02:45;;;;;;;28.70;17.75;;;5.30;99.90;;;;;;5077119;28;20189;-81
2023/02/14 04:05:22;;;;;;;29.10;16.15;;;5.10;99.90;;;;;;5095434;28;20181;-83
2023/02/14 04:07:51;;;;;;;33.50;18.52;;;5.10;99.90;;;;;;5095320;28;20586;-83
2023/02/14 04:10:19;;;;;;;30.98;17.63;;;5.10;99.90;;;;;;5095604;28;20173;-83
2023/02/14 04:12:45;;;;;;;31.80;17.33;;;5.00;99.90;;;;;;5095015;28;20548;-83
2023/02/14 04:15:12;;;;;;;29.70;17.33;;;5.10;99.90;;;;;;5077202;28;20189;-83
2023/02/14 04:20:21;;;;;;;27.55;16.30;;;5.10;99.90;;;;;;5095213;28;20175;-83
2023/02/14 04:22:47;;;;;;;29.37;16.47;;;5.30;99.90;;;;;;5095044;28;20189;-83
2023/02/14 04:25:14;;;;;;;24.93;15.60;;;5.30;99.90;;;;;;5076908;28;20425;-82
2023/02/14 04:27:40;;;;;;;26.73;15.88;;;5.30;99.90;;;;;;5094871;28;20460;-83
2023/02/14 04:30:06;;;;;;;28.25;17.00;;;5.30;99.90;;;;;;5095141;28;20542;-83
2023/02/14 04:32:32;;;;;;;28.83;16.38;;;5.30;99.90;;;;;;5094750;28;20196;-80
2023/02/14 04:34:57;;;;;;;28.40;16.27;;;5.30;99.90;;;;;;5076466;28;20273;-81
2023/02/14 04:37:23;;;;;;;28.83;17.50;;;5.20;99.90;;;;;;5094794;28;20200;-80
2023/02/14 04:39:49;;;;;;;29.97;18.23;;;5.20;99.90;;;;;;5094829;28;20706;-81
2023/02/14 04:42:15;;;;;;;28.53;17.17;;;5.20;99.90;;;;;;5076500;28;20220;-83
2023/02/14 04:44:40;;;;;;;29.40;16.70;;;5.20;99.90;;;;;;5094977;28;20172;-81
2023/02/14 04:47:07;;;;;;;28.80;16.43;;;5.20;99.90;;;;;;5076324;28;20429;-80
2023/02/14 04:49:33;;;;;;;32.40;16.30;;;5.20;99.90;;;;;;5076327;28;20237;-83
2023/02/14 04:51:59;;;;;;;27.25;16.13;;;5.20;99.90;;;;;;5076230;28;20584;-84
2023/02/14 04:54:25;;;;;;;33.65;19.77;;;5.20;99.90;;;;;;5076210;28;20181;-83
2023/02/14 04:56:51;;;;;;;25.50;17.07;;;5.10;99.90;;;;;;5076326;28;20185;-80
2023/02/14 04:59:16;;;;;;;29.07;18.00;;;5.00;99.90;;;;;;5094465;28;20184;-80
2023/02/14 05:01:42;;;;;;;29.40;18.60;;;4.90;99.90;;;;;;5075898;28;20622;-80
2023/02/14 05:04:08;;;;;;;33.63;18.73;;;4.90;99.90;;;;;;5094357;28;20169;-83
2023/02/14 05:06:34;;;;;;;32.55;18.05;;;4.80;99.90;;;;;;5075983;28;20199;-80
2023/02/14 05:09:00;;;;;;;35.07;19.60;;;4.70;99.90;;;;;;5093956;28;20217;-80
2023/02/14 05:11:27;;;;;;;33.92;18.83;;;4.70;99.90;;;;;;5094148;28;20172;-81
2023/02/14 05:13:54;;;;;;;36.90;20.77;;;4.60;99.90;;;;;;5093970;28;20240;-83
2023/02/14 05:16:20;;;;;;;31.88;18.73;;;4.60;99.90;;;;;;5094150;28;20653;-80
2023/02/14 05:18:46;;;;;;;32.50;19.08;;;4.60;99.90;;;;;;5093987;28;20184;-80
2023/02/14 05:21:12;;;;;;;32.95;18.42;;;4.60;99.90;;;;;;5094729;28;20613;-84
2023/02/14 05:23:37;;;;;;;34.97;20.33;;;4.50;99.90;;;;;;5093963;28;20245;-84
2023/02/14 05:26:03;;;;;;;33.67;20.43;;;4.50;99.90;;;;;;5094605;28;20173;-81
2023/02/14 05:28:29;;;;;;;30.30;20.07;;;4.40;99.90;;;;;;5093881;28;20856;-80
2023/02/14 05:30:56;;;;;;;62.43;33.50;;;4.40;99.90;;;;;;5078765;28;20176;-83
2023/02/14 05:33:22;;;;;;;68.10;34.17;;;4.50;99.90;;;;;;5099563;28;20200;-80
2023/02/14 05:35:48;;;;;;;71.27;37.30;;;4.50;99.90;;;;;;5111510;28;20536;-80
2023/02/14 05:38:13;;;;;;;79.07;42.07;;;4.50;99.90;;;;;;5093479;28;20211;-84
2023/02/14 05:40:41;;;;;;;75.00;44.30;;;4.40;99.90;;;;;;5093875;28;20240;-83
2023/02/14 05:43:07;;;;;;;77.93;44.60;;;4.40;99.90;;;;;;5111915;28;20507;-81
2023/02/14 05:45:32;;;;;;;91.37;45.20;;;4.40;99.90;;;;;;5109019;28;20279;-80
2023/02/14 05:47:58;;;;;;;95.40;50.07;;;4.50;99.90;;;;;;5093071;28;20732;-83
2023/02/14 05:50:24;;;;;;;78.73;41.87;;;4.50;99.90;;;;;;5093747;28;20435;-84
2023/02/14 05:52:50;;;;;;;73.77;39.17;;;4.70;99.90;;;;;;5091813;28;20431;-83
2023/02/14 05:55:15;;;;;;;65.77;33.30;;;4.70;99.90;;;;;;5075347;28;20644;-83
2023/02/14 05:57:41;;;;;;;74.87;39.37;;;4.80;99.90;;;;;;5086524;28;20690;-82
2023/02/14 06:00:08;;;;;;;63.43;32.60;;;4.80;99.90;;;;;;5109855;28;20197;-82
2023/02/14 06:02:34;;;;;;;55.58;27.50;;;4.90;99.90;;;;;;5092263;28;20244;-83
2023/02/14 06:04:59;;;;;;;61.30;33.10;;;4.90;99.90;;;;;;5092239;28;20223;-83
2023/02/14 06:07:25;;;;;;;58.17;31.73;;;4.90;99.90;;;;;;5090856;28;20565;-80
2023/02/14 06:09:51;;;;;;;55.50;29.30;;;4.90;99.90;;;;;;5083890;28;20176;-82
2023/02/14 06:12:16;;;;;;;53.67;30.97;;;5.00;99.90;;;;;;5090597;28;20244;-83
2023/02/14 06:14:43;;;;;;;54.10;31.13;;;5.00;99.90;;;;;;5106084;28;20238;-83
2023/02/14 06:17:09;;;;;;;48.08;26.35;;;5.00;99.90;;;;;;5109817;28;20198;-81
2023/02/14 06:19:35;;;;;;;53.73;31.83;;;4.90;99.90;;;;;;5094856;28;20180;-83
2023/02/14 06:22:01;;;;;;;51.13;29.77;;;4.90;99.90;;;;;;5113074;28;20448;-81
2023/02/14 06:24:26;;;;;;;50.97;29.67;;;4.80;99.90;;;;;;5112193;28;20431;-83
2023/02/14 06:26:52;;;;;;;58.87;32.80;;;4.90;99.90;;;;;;5082604;28;20191;-80
2023/02/14 06:29:18;;;;;;;51.60;32.53;;;4.90;99.90;;;;;;5108059;28;20591;-82
2023/02/14 06:31:44;;;;;;;59.00;36.00;;;4.90;99.90;;;;;;5087062;28;20188;-84
2023/02/14 06:34:10;;;;;;;40.63;25.43;;;5.00;99.90;;;;;;5075472;28;20179;-83
2023/02/14 06:36:35;;;;;;;37.33;23.30;;;5.00;99.90;;;;;;5090903;28;20428;-83
2023/02/14 06:39:03;;;;;;;30.97;19.43;;;5.10;99.90;;;;;;5102837;28;20264;-83
2023/02/14 06:41:29;;;;;;;29.30;18.15;;;5.10;99.90;;;;;;5084218;28;20427;-83
2023/02/14 06:43:55;;;;;;;32.70;18.80;;;5.10;99.90;;;;;;5106157;28;20195;-83
2023/02/14 06:46:20;;;;;;;26.03;15.60;;;5.20;99.90;;;;;;5104916;28;20432;-82
2023/02/14 06:48:46;;;;;;;26.93;16.73;;;5.20;99.90;;;;;;5109573;28;20223;-84
2023/02/14 06:51:12;;;;;;;26.00;15.53;;;5.20;99.90;;;;;;5090690;28;20184;-83
2023/02/14 06:53:38;;;;;;;29.58;17.60;;;5.30;99.90;;;;;;5085616;28;21064;-83
2023/02/14 06:56:04;;;;;;;52.57;31.93;;;5.30;99.90;;;;;;5098249;28;20274;-83
2023/02/14 06:58:30;;;;;;;32.67;18.05;;;5.30;99.90;;;;;;5107300;28;20691;-84
2023/02/14 07:00:57;;;;;;;25.10;16.43;;;5.30;99.90;;;;;;5112372;28;20409;-84
2023/02/14 07:03:23;;;;;;;27.55;16.95;;;5.30;99.90;;;;;;5094299;28;20239;-84
2023/02/14 07:05:49;;;;;;;24.90;15.50;;;5.40;99.90;;;;;;5089366;28;20185;-84
2023/02/14 07:08:14;;;;;;;26.73;16.13;;;5.40;99.90;;;;;;5104889;28;20241;-84
2023/02/14 07:10:40;;;;;;;31.53;15.50;;;5.40;99.90;;;;;;5093765;28;20199;-84
2023/02/14 07:13:06;;;;;;;28.60;16.83;;;5.40;99.90;;;;;;5103582;28;20676;-83
2023/02/14 07:15:32;;;;;;;22.83;15.57;;;5.50;99.90;;;;;;5061655;28;20302;-83
2023/02/14 07:17:57;;;;;;;28.90;17.53;;;5.50;99.90;;;;;;5071143;28;20207;-84
2023/02/14 07:20:23;;;;;;;26.17;16.10;;;5.60;99.90;;;;;;5079659;28;20521;-84
2023/02/14 07:22:49;;;;;;;25.08;15.57;;;5.60;99.90;;;;;;5062602;28;20250;-84
2023/02/14 07:25:15;;;;;;;29.60;17.40;;;5.60;99.90;;;;;;5081848;28;20275;-83
2023/02/14 07:27:40;;;;;;;26.60;16.77;;;5.60;99.90;;;;;;5065286;28;20547;-83
2023/02/14 07:30:07;;;;;;;29.90;16.40;;;5.70;99.90;;;;;;5080184;28;20196;-85
2023/02/14 07:32:33;;;;;;;30.88;17.98;;;5.70;99.90;;;;;;5080970;27;20761;-83
2023/02/14 07:34:59;;;;;;;29.52;17.13;;;5.70;99.90;;;;;;5064561;28;20194;-81
2023/02/14 07:37:25;;;;;;;27.93;17.00;;;5.70;99.90;;;;;;5079596;28;20203;-83
2023/02/14 07:39:50;;;;;;;27.57;16.97;;;5.70;99.90;;;;;;5080307;28;20587;-81
2023/02/14 07:42:16;;;;;;;27.77;16.70;;;5.70;99.90;;;;;;5059720;28;20921;-83
2023/02/14 07:44:43;;;;;;;32.83;19.40;;;5.90;99.90;;;;;;5081543;28;20628;-82
2023/02/14 07:47:09;;;;;;;37.88;23.48;;;6.00;99.90;;;;;;5090768;28;20204;-84
2023/02/14 07:49:35;;;;;;;32.75;18.25;;;6.20;99.90;;;;;;5090978;28;20654;-83
2023/02/14 07:52:02;;;;;;;31.85;18.92;;;6.40;99.90;;;;;;5080445;28;20614;-83
2023/02/14 07:54:27;;;;;;;31.20;19.58;;;6.70;99.90;;;;;;5081380;28;20229;-83
2023/02/14 07:56:53;;;;;;;34.70;20.47;;;7.00;99.90;;;;;;5097593;28;20172;-81
2023/02/14 07:59:19;;;;;;;30.47;19.10;;;7.50;99.90;;;;;;5091771;28;20223;-82
2023/02/14 08:01:45;;;;;;;33.27;19.73;;;8.10;99.90;;;;;;5086871;28;20271;-83
2023/02/14 08:04:12;;;;;;;30.87;21.33;;;8.90;99.90;;;;;;5111214;28;20254;-83
2023/02/14 08:06:39;;;;;;;33.30;20.77;;;9.70;99.90;;;;;;5106963;28;20183;-82
2023/02/14 08:09:06;;;;;;;31.65;19.55;;;10.50;99.90;;;;;;5104083;28;20223;-83
2023/02/14 08:14:16;;;;;;;30.63;20.42;;;12.20;99.90;;;;;;5109841;28;20249;-82
2023/02/14 08:16:42;;;;;;;32.33;19.97;;;13.20;99.90;;;;;;5088217;28;20274;-83
2023/02/14 08:19:08;;;;;;;29.47;21.23;;;14.00;99.90;;;;;;5103451;28;20819;-83
2023/02/14 08:21:33;;;;;;;29.97;20.60;;;14.70;99.90;;;;;;5090330;28;20194;-83
2023/02/14 08:23:59;;;;;;;33.83;21.90;;;15.40;99.90;;;;;;5091853;28;20203;-83
2023/02/14 08:26:25;;;;;;;29.63;21.43;;;16.00;99.90;;;;;;5078018;28;20648;-83
2023/02/14 08:28:51;;;;;;;26.07;19.73;;;16.50;99.90;;;;;;5094208;28;20211;-83
2023/02/14 08:31:30;;;;;;;31.63;21.17;;;16.70;99.90;;;;;;5112460;28;20188;-83
2023/02/14 08:33:56;;;;;;;25.60;19.90;;;17.30;99.70;;;;;;5089700;28;20440;-83
2023/02/14 08:36:22;;;;;;;32.97;22.13;;;18.10;97.80;;;;;;5105653;28;20443;-83
2023/02/14 08:38:48;;;;;;;31.67;21.00;;;18.70;95.50;;;;;;5104188;28;20959;-83
2023/02/14 08:41:15;;;;;;;31.10;19.93;;;19.00;93.80;;;;;;5111434;28;20188;-83
2023/02/14 08:43:41;;;;;;;165.53;87.10;;;19.30;93.40;;;;;;5109905;28;20470;-83
2023/02/14 08:46:06;;;;;;;30.23;20.50;;;19.60;92.60;;;;;;5101576;28;20497;-82
2023/02/14 08:48:34;;;;;;;27.63;19.93;;;19.90;91.40;;;;;;5078215;28;20471;-83
2023/02/14 08:51:07;;;;;;;32.33;22.67;;;20.20;90.50;;;;;;5099514;28;20182;-84
2023/02/14 08:53:33;;;;;;;32.40;22.00;;;20.30;89.50;;;;;;5098306;28;20434;-84
2023/02/14 08:56:08;;;;;;;31.10;21.47;;;20.40;88.90;;;;;;5092944;28;20803;-84
2023/02/14 08:58:34;;;;;;;30.70;22.50;;;21.00;87.10;;;;;;5089730;28;20860;-84
2023/02/14 09:01:01;;;;;;;29.70;20.60;;;21.20;85.00;;;;;;5098050;28;20443;-85
2023/02/14 09:03:27;;;;;;;29.37;20.53;;;21.10;84.00;;;;;;5083529;28;20465;-86
2023/02/14 09:05:52;;;;;;;27.80;20.30;;;21.40;83.50;;;;;;5085462;28;20757;-85
2023/02/14 09:08:18;;;;;;;30.00;22.07;;;21.50;82.30;;;;;;5099430;28;20204;-83
2023/02/14 09:10:43;;;;;;;28.00;20.10;;;21.60;82.60;;;;;;5101603;28;20207;-84
2023/02/14 09:13:09;;;;;;;28.90;20.20;;;21.70;81.30;;;;;;5100689;28;20430;-83
2023/02/14 09:15:35;;;;;;;28.03;21.43;;;21.40;80.70;;;;;;5104426;28;20730;-85
2023/02/14 09:18:00;;;;;;;33.00;22.90;;;21.10;81.40;;;;;;5104498;28;20230;-85
2023/02/14 09:20:26;;;;;;;27.73;20.60;;;20.90;82.10;;;;;;5075043;28;20232;-85
2023/02/14 09:22:55;;;;;;;32.83;21.40;;;20.90;81.80;;;;;;5082205;28;20203;-85
2023/02/14 09:25:21;;;;;;;27.13;20.73;;;20.90;81.60;;;;;;5102003;28;20542;-85
2023/02/14 09:27:47;;;;;;;29.20;21.87;;;20.90;81.10;;;;;;5088404;28;20558;-85
2023/02/14 09:30:13;;;;;;;28.30;19.97;;;20.80;81.00;;;;;;5076785;28;20171;-83
2023/02/14 09:32:38;;;;;;;24.50;20.23;;;20.90;81.00;;;;;;5089591;28;20661;-85
2023/02/14 09:35:05;;;;;;;23.03;18.40;;;21.10;80.40;;;;;;5087965;28;20538;-84
2023/02/14 09:37:31;;;;;;;26.73;19.77;;;21.40;80.50;;;;;;5082886;28;20719;-84
2023/02/14 09:39:57;;;;;;;25.57;20.07;;;21.60;79.70;;;;;;5079923;28;20440;-83
2023/02/14 09:42:37;;;;;;;28.30;19.43;;;21.50;79.80;;;;;;5104026;28;20600;-84
2023/02/14 09:45:09;;;;;;;26.10;19.77;;;21.30;79.30;;;;;;5097863;28;20264;-85
2023/02/14 09:47:34;;;;;;;25.27;20.50;;;21.00;79.50;;;;;;5087574;28;20455;-86
2023/02/14 09:50:04;;;;;;;29.47;21.87;;;20.60;80.70;;;;;;5097341;28;20434;-86
2023/02/14 09:52:31;;;;;;;27.20;19.30;;;20.50;81.70;;;;;;5085045;28;20230;-83
2023/02/14 09:55:00;;;;;;;26.23;20.70;;;20.80;80.60;;;;;;5099320;28;20987;-86
2023/02/14 09:57:55;;;;;;;23.70;18.40;;;21.00;80.60;;;;;;5085483;28;20494;-83
2023/02/14 10:00:33;;;;;;;26.70;20.17;;;21.00;80.20;;;;;;5086519;28;20451;-85
2023/02/14 10:03:13;;;;;;;28.47;19.73;;;21.20;80.00;;;;;;5099161;28;20448;-86
2023/02/14 10:06:02;;;;;;;25.60;18.40;;;21.30;78.60;;;;;;5079858;28;20462;-85
2023/02/14 10:09:09;;;;;;;25.57;19.20;;;21.70;78.50;;;;;;5082513;28;20470;-83
2023/02/14 10:11:36;;;;;;;26.47;20.90;;;21.50;77.90;;;;;;5094108;28;20632;-83
2023/02/14 10:14:12;;;;;;;26.67;19.80;;;21.10;79.80;;;;;;5092467;28;20471;-85
2023/02/14 10:16:55;;;;;;;31.73;24.73;;;20.80;79.00;;;;;;5095591;28;20423;-83
2023/02/14 10:19:33;;;;;;;27.97;20.07;;;20.20;79.20;;;;;;5101973;28;20438;-84
2023/02/14 10:22:04;;;;;;;25.00;18.50;;;19.40;80.40;;;;;;5100134;28;20429;-85
2023/02/14 10:24:46;;;;;;;24.17;18.80;;;18.60;81.50;;;;;;5102069;28;20936;-83
2023/02/14 10:27:33;;;;;;;26.60;18.37;;;17.80;83.70;;;;;;5100737;28;20887;-83
2023/02/14 10:30:01;;;;;;;23.63;17.27;;;17.20;85.80;;;;;;5082888;28;20445;-84
2023/02/14 10:32:44;;;;;;;25.87;18.90;;;16.80;86.00;;;;;;5089817;28;20452;-84
2023/02/14 10:35:39;;;;;;;26.30;19.20;;;16.50;87.40;;;;;;5076318;28;20417;-84
2023/02/14 10:38:23;;;;;;;27.33;18.83;;;16.30;87.20;;;;;;5096101;28;20441;-83
2023/02/14 10:41:09;;;;;;;24.10;19.10;;;16.00;88.10;;;;;;5084468;28;20460;-86
2023/02/14 10:44:16;;;;;;;22.57;17.83;;;15.70;89.60;;;;;;5109668;28;20964;-86
2023/02/14 10:46:50;;;;;;;25.53;17.60;;;15.40;90.00;;;;;;5103715;28;20444;-85
2023/02/14 10:49:39;;;;;;;24.83;17.90;;;14.60;90.50;;;;;;5082355;28;20868;-85
2023/02/14 10:52:25;;;;;;;24.57;16.60;;;14.30;91.20;;;;;;5053605;28;20820;-85
2023/02/14 10:55:01;;;;;;;27.80;17.03;;;14.00;91.60;;;;;;5104395;28;20440;-86
2023/02/14 10:57:42;;;;;;;23.20;16.87;;;14.30;91.90;;;;;;5092443;28;20710;-86
2023/02/14 11:00:20;;;;;;;26.00;16.90;;;14.40;91.50;;;;;;5082607;28;20442;-86
2023/02/14 11:02:51;;;;;;;35.63;24.40;;;14.10;92.10;;;;;;5090570;28;20465;-86
2023/02/14 11:05:40;;;;;;;23.67;16.63;;;14.00;92.50;;;;;;5090376;28;20965;-86
2023/02/14 11:08:38;;;;;;;22.90;15.97;;;14.20;92.20;;;;;;5078628;28;20472;-85
2023/02/14 11:11:27;;;;;;;23.47;16.03;;;14.30;92.30;;;;;;5099672;28;20662;-85
2023/02/14 11:13:53;;;;;;;24.20;16.07;;;14.30;92.20;;;;;;5091426;28;20476;-85
2023/02/14 11:16:34;;;;;;;23.47;15.10;;;14.20;92.60;;;;;;5086796;28;20455;-86
2023/02/14 11:19:37;;;;;;;26.00;17.73;;;14.30;92.30;;;;;;5108360;28;20206;-85
2023/02/14 11:22:03;;;;;;;23.17;15.43;;;14.20;92.20;;;;;;5086568;28;20820;-86
2023/02/14 11:24:32;;;;;;;20.70;15.03;;;14.10;92.40;;;;;;5077236;28;20433;-85
2023/02/14 11:27:18;;;;;;;21.33;15.90;;;14.10;92.70;;;;;;5103636;28;20775;-86
2023/02/14 11:29:51;;;;;;;23.80;16.20;;;14.10;93.20;;;;;;5108638;28;20439;-85
2023/02/14 11:32:29;;;;;;;21.30;15.40;;;14.00;93.00;;;;;;5090925;28;20468;-85
2023/02/14 11:35:04;;;;;;;29.27;17.73;;;14.10;93.00;;;;;;5089615;28;20476;-85
2023/02/14 11:37:35;;;;;;;24.63;15.80;;;14.20;93.40;;;;;;5090916;28;20462;-85
2023/02/14 11:40:04;;;;;;;23.90;16.97;;;14.00;93.10;;;;;;5112645;28;20419;-85
2023/02/14 11:42:35;;;;;;;25.97;17.33;;;13.90;93.10;;;;;;5093649;28;20447;-85
2023/02/14 11:45:04;;;;;;;22.77;16.77;;;13.80;93.30;;;;;;5108159;28;20448;-86
2023/02/14 11:47:40;;;;;;;21.00;15.40;;;13.90;93.40;;;;;;5090426;28;20856;-86
2023/02/14 11:50:23;;;;;;;22.33;17.13;;;13.90;93.20;;;;;;5090186;28;20440;-86
2023/02/14 11:52:53;;;;;;;23.70;17.20;;;14.00;93.30;;;;;;5108053;28;20454;-86
2023/02/14 11:55:32;;;;;;;25.90;16.90;;;14.10;93.30;;;;;;5103806;28;21008;-86
2023/02/14 11:57:59;;;;;;;24.30;16.23;;;14.20;93.00;;;;;;5088744;28;20840;-86
2023/02/14 12:00:26;;;;;;;22.53;15.30;;;14.30;93.10;;;;;;5102013;28;20468;-85
2023/02/14 12:02:54;;;;;;;20.67;14.13;;;14.40;93.20;;;;;;5088339;28;20459;-86
2023/02/14 12:05:32;;;;;;;24.30;17.37;;;14.30;92.90;;;;;;5083150;28;20523;-84
2023/02/14 12:08:01;;;;;;;19.70;15.60;;;14.20;92.50;;;;;;5097449;28;21071;-86
2023/02/14 12:10:32;;;;;;;23.37;15.90;;;13.90;93.10;;;;;;5086011;28;21621;-83
2023/02/14 12:13:08;;;;;;;25.10;15.47;;;13.90;93.30;;;;;;5085054;28;20831;-86
2023/02/14 12:15:36;;;;;;;24.00;16.60;;;13.90;93.60;;;;;;5084984;28;20431;-82
2023/02/14 12:18:20;;;;;;;25.53;15.90;;;14.10;93.50;;;;;;5102776;28;20539;-85
2023/02/14 12:21:16;;;;;;;16.07;12.40;;;14.30;93.10;;;;;;5089087;28;20449;-87
2023/02/14 12:23:50;;;;;;;18.87;13.27;;;14.40;91.90;;;;;;5105971;28;20980;-85
2023/02/14 12:26:21;;;;;;;18.40;13.33;;;14.50;91.90;;;;;;5085566;28;20517;-85
2023/02/14 12:29:05;;;;;;;25.50;14.03;;;14.60;91.30;;;;;;5107367;27;20995;-86
2023/02/14 12:31:31;;;;;;;18.23;12.83;;;14.40;91.00;;;;;;5086856;28;20578;-84
2023/02/14 12:33:57;;;;;;;19.37;13.20;;;14.10;90.90;;;;;;5081818;28;20531;-85
2023/02/14 12:36:45;;;;;;;20.93;13.57;;;13.90;91.10;;;;;;5090878;28;20507;-84
2023/02/14 12:39:18;;;;;;;18.53;13.87;;;13.90;91.10;;;;;;5101384;28;20953;-84
2023/02/14 12:42:07;;;;;;;26.30;17.77;;;13.70;91.00;;;;;;5105909;28;20431;-85
2023/02/14 12:44:44;;;;;;;18.73;12.70;;;13.50;90.70;;;;;;5111046;28;20467;-84
2023/02/14 12:47:16;;;;;;;16.43;12.10;;;13.40;90.70;;;;;;5105483;28;20515;-85
2023/02/14 12:50:16;;;;;;;16.07;10.77;;;13.30;90.60;;;;;;5083751;28;20451;-84
2023/02/14 12:52:50;;;;;;;17.87;12.20;;;13.10;90.60;;;;;;5086488;28;20471;-84
2023/02/14 12:55:25;;;;;;;24.53;15.80;;;12.90;90.80;;;;;;5100877;28;20441;-85
2023/02/14 12:58:22;;;;;;;24.03;15.17;;;12.90;90.60;;;;;;5085103;28;20453;-84
2023/02/14 13:01:15;;;;;;;19.17;13.97;;;12.90;90.80;;;;;;5087221;28;20609;-81
2023/02/14 13:04:09;;;;;;;18.10;12.20;;;12.60;90.90;;;;;;5084719;28;21059;-85
2023/02/14 13:06:43;;;;;;;17.37;12.43;;;12.50;90.80;;;;;;5100687;28;20436;-85
2023/02/14 13:09:33;;;;;;;18.87;13.27;;;12.50;90.60;;;;;;5093590;28;20464;-81
2023/02/14 13:12:17;;;;;;;15.57;11.33;;;12.40;90.50;;;;;;5081020;28;20429;-82